sensor_id;sensor_type;location;lat;lon;timestamp;pressure;altitude;pressure_sealevel;temperature;humidity
75157;BME280;63736;50.076;8.198;2023-04-01T00:01:55;97785.63;;;10.31;100.00
75157;BME280;63736;50.076;8.198;2023-04-01T00:04:21;97785.81;;;10.30;100.00
75157;BME280;63736;50.076;8.198;2023-04-01T00:06:46;97787.66;;;10.29;100.00
75157;BME280;63736;50.076;8.198;2023-04-01T00:09:13;97781.47;;;10.29;100.00
75157;BME280;63736;50.076;8.198;2023-04-01T00:11:38;97781.47;;;10.29;100.00
75157;BME280;63736;50.076;8.198;2023-04-01T00:14:04;97793.19;;;10.28;100.00
75157;BME280;63736;50.076;8.198;2023-04-01T00:16:29;97790.50;;;10.28;100.00
75157;BME280;63736;50.076;8.198;2023-04-01T00:18:55;97787.00;;;10.27;100.00
75157;BME280;63736;50.076;8.198;2023-04-01T00:21:20;97784.31;;;10.27;100.00
75157;BME280;63736;50.076;8.198;2023-04-01T00:23:47;97778.97;;;10.27;100.00
75157;BME280;63736;50.076;8.198;2023-04-01T00:26:12;97785.34;;;10.26;100.00
75157;BME280;63736;50.076;8.198;2023-04-01T00:28:39;97780.84;;;10.27;100.00
75157;BME280;63736;50.076;8.198;2023-04-01T00:31:06;97787.84;;;10.28;100.00
75157;BME280;63736;50.076;8.198;2023-04-01T00:33:32;97782.69;;;10.26;100.00
75157;BME280;63736;50.076;8.198;2023-04-01T00:36:06;97775.66;;;10.25;100.00
75157;BME280;63736;50.076;8.198;2023-04-01T00:38:31;97774.00;;;10.24;100.00
75157;BME280;63736;50.076;8.198;2023-04-01T00:40:57;97777.84;;;10.21;100.00
75157;BME280;63736;50.076;8.198;2023-04-01T00:43:23;97778.03;;;10.20;100.00
75157;BME280;63736;50.076;8.198;2023-04-01T00:45:49;97773.00;;;10.17;100.00
75157;BME280;63736;50.076;8.198;2023-04-01T00:48:19;97781.19;;;10.15;100.00
75157;BME280;63736;50.076;8.198;2023-04-01T00:50:50;97785.88;;;10.13;100.00
75157;BME280;63736;50.076;8.198;2023-04-01T00:53:18;97776.38;;;10.11;100.00
75157;BME280;63736;50.076;8.198;2023-04-01T00:55:50;97779.84;;;10.11;100.00
75157;BME280;63736;50.076;8.198;2023-04-01T00:58:18;97777.38;;;10.09;100.00
75157;BME280;63736;50.076;8.198;2023-04-01T01:00:47;97776.69;;;10.07;100.00
75157;BME280;63736;50.076;8.198;2023-04-01T01:03:14;97770.72;;;10.05;100.00
75157;BME280;63736;50.076;8.198;2023-04-01T01:05:59;97770.03;;;10.03;100.00
75157;BME280;63736;50.076;8.198;2023-04-01T01:11:08;97774.03;;;9.99;100.00
75157;BME280;63736;50.076;8.198;2023-04-01T01:13:44;97781.38;;;9.97;100.00
75157;BME280;63736;50.076;8.198;2023-04-01T01:16:21;97769.88;;;9.97;100.00
75157;BME280;63736;50.076;8.198;2023-04-01T01:18:58;97773.53;;;9.96;100.00
75157;BME280;63736;50.076;8.198;2023-04-01T01:21:46;97761.19;;;9.95;100.00
75157;BME280;63736;50.076;8.198;2023-04-01T01:24:37;97766.53;;;9.95;100.00
75157;BME280;63736;50.076;8.198;2023-04-01T01:27:12;97770.06;;;9.95;100.00
75157;BME280;63736;50.076;8.198;2023-04-01T01:37:43;97766.69;;;9.93;100.00
75157;BME280;63736;50.076;8.198;2023-04-01T01:40:11;97759.56;;;9.94;100.00
75157;BME280;63736;50.076;8.198;2023-04-01T01:42:40;97762.22;;;9.94;100.00
75157;BME280;63736;50.076;8.198;2023-04-01T01:45:08;97758.69;;;9.93;100.00
75157;BME280;63736;50.076;8.198;2023-04-01T01:47:35;97758.69;;;9.93;100.00
75157;BME280;63736;50.076;8.198;2023-04-01T01:50:02;97760.38;;;9.94;100.00
75157;BME280;63736;50.076;8.198;2023-04-01T01:52:28;97759.56;;;9.94;100.00
75157;BME280;63736;50.076;8.198;2023-04-01T01:54:55;97763.88;;;9.95;100.00
75157;BME280;63736;50.076;8.198;2023-04-01T01:57:27;97757.53;;;9.96;100.00
75157;BME280;63736;50.076;8.198;2023-04-01T01:59:58;97759.38;;;9.95;100.00
75157;BME280;63736;50.076;8.198;2023-04-01T02:02:26;97759.22;;;9.97;100.00
75157;BME280;63736;50.076;8.198;2023-04-01T02:04:56;97754.69;;;9.97;100.00
75157;BME280;63736;50.076;8.198;2023-04-01T02:07:27;97756.38;;;9.98;100.00
75157;BME280;63736;50.076;8.198;2023-04-01T02:09:55;97752.03;;;9.97;100.00
75157;BME280;63736;50.076;8.198;2023-04-01T02:12:22;97753.88;;;9.97;100.00
75157;BME280;63736;50.076;8.198;2023-04-01T02:15:09;97754.88;;;9.96;100.00
75157;BME280;63736;50.076;8.198;2023-04-01T02:17:40;97749.53;;;9.96;100.00
75157;BME280;63736;50.076;8.198;2023-04-01T02:20:11;97745.88;;;9.97;100.00
75157;BME280;63736;50.076;8.198;2023-04-01T02:22:42;97759.84;;;9.99;100.00
75157;BME280;63736;50.076;8.198;2023-04-01T02:25:12;97748.38;;;9.98;100.00
75157;BME280;63736;50.076;8.198;2023-04-01T02:27:40;97757.19;;;9.99;100.00
75157;BME280;63736;50.076;8.198;2023-04-01T02:30:08;97753.69;;;9.98;100.00
75157;BME280;63736;50.076;8.198;2023-04-01T02:32:35;97745.88;;;9.97;100.00
75157;BME280;63736;50.076;8.198;2023-04-01T02:35:07;97746.88;;;9.96;100.00
75157;BME280;63736;50.076;8.198;2023-04-01T02:37:33;97747.72;;;9.96;100.00
75157;BME280;63736;50.076;8.198;2023-04-01T02:40:03;97742.53;;;9.95;100.00
75157;BME280;63736;50.076;8.198;2023-04-01T02:42:31;97747.03;;;9.94;100.00
75157;BME280;63736;50.076;8.198;2023-04-01T02:44:56;97743.56;;;9.94;100.00
75157;BME280;63736;50.076;8.198;2023-04-01T02:47:22;97748.03;;;9.93;100.00
75157;BME280;63736;50.076;8.198;2023-04-01T02:49:47;97740.22;;;9.91;100.00
75157;BME280;63736;50.076;8.198;2023-04-01T02:52:12;97746.53;;;9.90;100.00
75157;BME280;63736;50.076;8.198;2023-04-01T02:54:38;97749.19;;;9.90;100.00
75157;BME280;63736;50.076;8.198;2023-04-01T02:57:03;97750.19;;;9.89;100.00
75157;BME280;63736;50.076;8.198;2023-04-01T02:59:28;97741.56;;;9.87;100.00
75157;BME280;63736;50.076;8.198;2023-04-01T03:01:53;97745.22;;;9.86;100.00
75157;BME280;63736;50.076;8.198;2023-04-01T03:04:19;97743.38;;;9.87;100.00
75157;BME280;63736;50.076;8.198;2023-04-01T03:06:44;97751.38;;;9.87;100.00
75157;BME280;63736;50.076;8.198;2023-04-01T03:09:09;97747.06;;;9.86;100.00
75157;BME280;63736;50.076;8.198;2023-04-01T03:11:35;97748.06;;;9.85;100.00
75157;BME280;63736;50.076;8.198;2023-04-01T03:14:00;97740.22;;;9.83;100.00
75157;BME280;63736;50.076;8.198;2023-04-01T03:16:26;97749.22;;;9.82;100.00
75157;BME280;63736;50.076;8.198;2023-04-01T03:18:51;97752.22;;;9.79;100.00
75157;BME280;63736;50.076;8.198;2023-04-01T03:21:23;97750.56;;;9.78;100.00
75157;BME280;63736;50.076;8.198;2023-04-01T03:23:48;97742.72;;;9.76;100.00
75157;BME280;63736;50.076;8.198;2023-04-01T03:26:14;97747.22;;;9.76;100.00
75157;BME280;63736;50.076;8.198;2023-04-01T03:28:39;97747.22;;;9.76;100.00
75157;BME280;63736;50.076;8.198;2023-04-01T03:31:04;97743.72;;;9.75;100.00
75157;BME280;63736;50.076;8.198;2023-04-01T03:33:30;97747.22;;;9.76;100.00
75157;BME280;63736;50.076;8.198;2023-04-01T03:35:55;97741.22;;;9.74;100.00
75157;BME280;63736;50.076;8.198;2023-04-01T03:38:21;97740.38;;;9.73;100.00
75157;BME280;63736;50.076;8.198;2023-04-01T03:40:46;97740.38;;;9.73;100.00
75157;BME280;63736;50.076;8.198;2023-04-01T03:43:11;97743.06;;;9.73;100.00
75157;BME280;63736;50.076;8.198;2023-04-01T03:45:48;97741.06;;;9.75;100.00
75157;BME280;63736;50.076;8.198;2023-04-01T03:48:14;97745.72;;;9.73;100.00
75157;BME280;63736;50.076;8.198;2023-04-01T03:50:39;97745.72;;;9.73;100.00
75157;BME280;63736;50.076;8.198;2023-04-01T03:53:05;97744.06;;;9.72;100.00
75157;BME280;63736;50.076;8.198;2023-04-01T03:55:30;97738.72;;;9.72;100.00
75157;BME280;63736;50.076;8.198;2023-04-01T03:57:56;97739.56;;;9.73;100.00
75157;BME280;63736;50.076;8.198;2023-04-01T04:00:21;97741.22;;;9.74;100.00
75157;BME280;63736;50.076;8.198;2023-04-01T04:02:48;97741.38;;;9.72;100.00
75157;BME280;63736;50.076;8.198;2023-04-01T04:05:13;97738.53;;;9.74;100.00
75157;BME280;63736;50.076;8.198;2023-04-01T04:07:38;97741.38;;;9.72;100.00
75157;BME280;63736;50.076;8.198;2023-04-01T04:10:04;97744.91;;;9.73;100.00
75157;BME280;63736;50.076;8.198;2023-04-01T04:12:30;97748.38;;;9.73;100.00
75157;BME280;63736;50.076;8.198;2023-04-01T04:14:56;97737.72;;;9.73;100.00
75157;BME280;63736;50.076;8.198;2023-04-01T04:17:21;97748.56;;;9.72;100.00
75157;BME280;63736;50.076;8.198;2023-04-01T04:19:46;97752.03;;;9.72;100.00
75157;BME280;63736;50.076;8.198;2023-04-01T04:22:11;97749.38;;;9.72;100.00
75157;BME280;63736;50.076;8.198;2023-04-01T04:24:37;97755.72;;;9.71;100.00
75157;BME280;63736;50.076;8.198;2023-04-01T04:27:03;97752.03;;;9.72;100.00
75157;BME280;63736;50.076;8.198;2023-04-01T04:29:29;97751.22;;;9.72;100.00
75157;BME280;63736;50.076;8.198;2023-04-01T04:31:54;97746.72;;;9.72;100.00
75157;BME280;63736;50.076;8.198;2023-04-01T04:34:20;97752.03;;;9.72;100.00
75157;BME280;63736;50.076;8.198;2023-04-01T04:36:47;97753.03;;;9.71;100.00
75157;BME280;63736;50.076;8.198;2023-04-01T04:39:12;97752.91;;;9.73;100.00
75157;BME280;63736;50.076;8.198;2023-04-01T04:41:38;97755.72;;;9.71;100.00
75157;BME280;63736;50.076;8.198;2023-04-01T04:44:04;97753.03;;;9.71;100.00
75157;BME280;63736;50.076;8.198;2023-04-01T04:46:29;97755.72;;;9.71;100.00
75157;BME280;63736;50.076;8.198;2023-04-01T04:48:55;97748.72;;;9.70;100.00
75157;BME280;63736;50.076;8.198;2023-04-01T04:51:21;97746.88;;;9.71;100.00
75157;BME280;63736;50.076;8.198;2023-04-01T04:53:47;97750.56;;;9.70;100.00
75157;BME280;63736;50.076;8.198;2023-04-01T04:56:17;97747.06;;;9.69;100.00
75157;BME280;63736;50.076;8.198;2023-04-01T04:58:43;97746.06;;;9.70;100.00
75157;BME280;63736;50.076;8.198;2023-04-01T05:01:10;97745.03;;;9.71;100.00
75157;BME280;63736;50.076;8.198;2023-04-01T05:03:36;97750.38;;;9.71;100.00
75157;BME280;63736;50.076;8.198;2023-04-01T05:06:02;97746.88;;;9.71;100.00
75157;BME280;63736;50.076;8.198;2023-04-01T05:08:27;97736.41;;;9.69;100.00
75157;BME280;63736;50.076;8.198;2023-04-01T05:10:53;97752.41;;;9.69;100.00
75157;BME280;63736;50.076;8.198;2023-04-01T05:13:18;97751.53;;;9.69;100.00
75157;BME280;63736;50.076;8.198;2023-04-01T05:15:43;97750.91;;;9.67;100.00
75157;BME280;63736;50.076;8.198;2023-04-01T05:18:08;97750.72;;;9.68;100.00
75157;BME280;63736;50.076;8.198;2023-04-01T05:20:34;97749.06;;;9.67;100.00
75157;BME280;63736;50.076;8.198;2023-04-01T05:22:59;97745.38;;;9.68;100.00
75157;BME280;63736;50.076;8.198;2023-04-01T05:25:25;97742.72;;;9.68;100.00
75157;BME280;63736;50.076;8.198;2023-04-01T05:27:51;97745.56;;;9.67;100.00
75157;BME280;63736;50.076;8.198;2023-04-01T05:30:16;97742.91;;;9.67;100.00
75157;BME280;63736;50.076;8.198;2023-04-01T05:32:42;97741.06;;;9.67;100.00
75157;BME280;63736;50.076;8.198;2023-04-01T05:35:09;97745.22;;;9.70;100.00
75157;BME280;63736;50.076;8.198;2023-04-01T05:37:34;97739.88;;;9.70;100.00
75157;BME280;63736;50.076;8.198;2023-04-01T05:40:00;97742.38;;;9.71;100.00
75157;BME280;63736;50.076;8.198;2023-04-01T05:42:25;97738.72;;;9.72;100.00
75157;BME280;63736;50.076;8.198;2023-04-01T05:44:51;97746.72;;;9.72;100.00
75157;BME280;63736;50.076;8.198;2023-04-01T05:47:16;97744.91;;;9.73;100.00
75157;BME280;63736;50.076;8.198;2023-04-01T05:49:41;97741.22;;;9.74;100.00
75157;BME280;63736;50.076;8.198;2023-04-01T05:52:07;97744.38;;;9.78;100.00
75157;BME280;63736;50.076;8.198;2023-04-01T05:54:32;97736.06;;;9.81;100.00
75157;BME280;63736;50.076;8.198;2023-04-01T05:56:58;97736.06;;;9.81;100.00
75157;BME280;63736;50.076;8.198;2023-04-01T05:59:23;97737.38;;;9.85;100.00
75157;BME280;63736;50.076;8.198;2023-04-01T06:01:48;97737.38;;;9.85;100.00
75157;BME280;63736;50.076;8.198;2023-04-01T06:04:15;97738.88;;;9.87;100.00
75157;BME280;63736;50.076;8.198;2023-04-01T06:06:41;97738.03;;;9.87;100.00
75157;BME280;63736;50.076;8.198;2023-04-01T06:09:18;97736.03;;;9.89;100.00
75157;BME280;63736;50.076;8.198;2023-04-01T06:23:05;97746.69;;;9.97;100.00
75157;BME280;63736;50.076;8.198;2023-04-01T06:25:44;97749.19;;;9.99;100.00
75157;BME280;63736;50.076;8.198;2023-04-01T06:31:25;97750.03;;;9.99;100.00
75157;BME280;63736;50.076;8.198;2023-04-01T06:36:56;97748.38;;;9.98;100.00
75157;BME280;63736;50.076;8.198;2023-04-01T06:45:17;97747.84;;;9.95;100.00
75157;BME280;63736;50.076;8.198;2023-04-01T06:47:59;97746.22;;;9.94;100.00
75157;BME280;63736;50.076;8.198;2023-04-01T06:50:30;97747.22;;;9.92;100.00
75157;BME280;63736;50.076;8.198;2023-04-01T06:53:32;97751.69;;;9.92;100.00
75157;BME280;63736;50.076;8.198;2023-04-01T06:56:17;97753.53;;;9.91;100.00
75157;BME280;63736;50.076;8.198;2023-04-01T06:58:48;97759.06;;;9.90;100.00
75157;BME280;63736;50.076;8.198;2023-04-01T07:01:22;97750.88;;;9.91;100.00
75157;BME280;63736;50.076;8.198;2023-04-01T07:03:56;97748.38;;;9.98;100.00
75157;BME280;63736;50.076;8.198;2023-04-01T07:09:33;97750.81;;;10.24;100.00
75157;BME280;63736;50.076;8.198;2023-04-01T07:12:02;97746.78;;;10.29;100.00
75157;BME280;63736;50.076;8.198;2023-04-01T07:14:36;97744.63;;;10.32;100.00
75157;BME280;63736;50.076;8.198;2023-04-01T07:17:18;97739.28;;;10.32;100.00
75157;BME280;63736;50.076;8.198;2023-04-01T07:19:51;97746.63;;;10.38;100.00
75157;BME280;63736;50.076;8.198;2023-04-01T07:22:56;97744.28;;;10.44;100.00
75157;BME280;63736;50.076;8.198;2023-04-01T07:27:53;97744.19;;;10.68;100.00
75157;BME280;63736;50.076;8.198;2023-04-01T07:30:23;97744.44;;;10.82;100.00
75157;BME280;63736;50.076;8.198;2023-04-01T07:35:35;97744.53;;;11.28;100.00
75157;BME280;63736;50.076;8.198;2023-04-01T07:40:58;97759.59;;;11.90;100.00
75157;BME280;63736;50.076;8.198;2023-04-01T07:43:32;97749.63;;;12.22;100.00
75157;BME280;63736;50.076;8.198;2023-04-01T07:46:13;97756.56;;;12.32;100.00
75157;BME280;63736;50.076;8.198;2023-04-01T07:48:49;97760.16;;;12.24;100.00
75157;BME280;63736;50.076;8.198;2023-04-01T07:51:33;97774.34;;;12.10;100.00
75157;BME280;63736;50.076;8.198;2023-04-01T07:54:16;97775.59;;;11.99;100.00
75157;BME280;63736;50.076;8.198;2023-04-01T07:57:03;97775.06;;;11.80;100.00
75157;BME280;63736;50.076;8.198;2023-04-01T07:59:44;97781.56;;;11.63;100.00
75157;BME280;63736;50.076;8.198;2023-04-01T08:04:55;97782.19;;;11.41;100.00
75157;BME280;63736;50.076;8.198;2023-04-01T08:07:25;97785.59;;;11.35;100.00
75157;BME280;63736;50.076;8.198;2023-04-01T08:16:17;97778.16;;;11.46;100.00
75157;BME280;63736;50.076;8.198;2023-04-01T08:19:15;97787.03;;;11.46;100.00
75157;BME280;63736;50.076;8.198;2023-04-01T08:21:47;97781.75;;;11.38;100.00
75157;BME280;63736;50.076;8.198;2023-04-01T08:24:37;97798.47;;;11.32;100.00
75157;BME280;63736;50.076;8.198;2023-04-01T08:27:18;97798.47;;;11.32;100.00
75157;BME280;63736;50.076;8.198;2023-04-01T08:30:16;97799.28;;;11.32;100.00
75157;BME280;63736;50.076;8.198;2023-04-01T08:32:46;97794.25;;;11.37;100.00
75157;BME280;63736;50.076;8.198;2023-04-01T08:35:30;97807.41;;;11.47;100.00
75157;BME280;63736;50.076;8.198;2023-04-01T08:38:01;97803.19;;;11.53;100.00
75157;BME280;63736;50.076;8.198;2023-04-01T08:46:46;97803.41;;;11.66;100.00
75157;BME280;63736;50.076;8.198;2023-04-01T08:49:43;97810.25;;;11.69;100.00
75157;BME280;63736;50.076;8.198;2023-04-01T08:52:33;97803.56;;;11.73;100.00
75157;BME280;63736;50.076;8.198;2023-04-01T09:00:25;97807.09;;;11.88;100.00
75157;BME280;63736;50.076;8.198;2023-04-01T09:03:31;97813.28;;;11.89;100.00
75157;BME280;63736;50.076;8.198;2023-04-01T09:06:25;97812.59;;;11.95;100.00
75157;BME280;63736;50.076;8.198;2023-04-01T09:09:21;97811.22;;;11.99;100.00
75157;BME280;63736;50.076;8.198;2023-04-01T09:12:00;97816.41;;;12.01;
75157;BME280;63736;50.076;8.198;2023-04-01T09:22:50;97822.84;;;12.06;100.00
75157;BME280;63736;50.076;8.198;2023-04-01T09:28:28;97824.81;;;12.13;100.00
75157;BME280;63736;50.076;8.198;2023-04-01T09:36:51;97828.25;;;12.21;100.00
75157;BME280;63736;50.076;8.198;2023-04-01T09:39:35;97836.88;;;12.32;100.00
75157;BME280;63736;50.076;8.198;2023-04-01T09:44:58;97846.22;;;12.81;100.00
75157;BME280;63736;50.076;8.198;2023-04-01T09:47:45;97843.91;;;13.08;100.00
75157;BME280;63736;50.076;8.198;2023-04-01T09:53:20;97843.94;;;13.59;100.00
75157;BME280;63736;50.076;8.198;2023-04-01T09:56:06;97840.69;;;13.64;100.00
75157;BME280;63736;50.076;8.198;2023-04-01T10:12:38;97861.34;;;13.33;100.00
75157;BME280;63736;50.076;8.198;2023-04-01T10:18:31;97865.59;;;13.28;100.00
75157;BME280;63736;50.076;8.198;2023-04-01T10:24:42;97865.44;;;13.29;100.00
75157;BME280;63736;50.076;8.198;2023-04-01T10:27:22;97864.22;;;13.32;100.00
75157;BME280;63736;50.076;8.198;2023-04-01T10:33:17;97859.84;;;13.61;100.00
75157;BME280;63736;50.076;8.198;2023-04-01T10:36:04;97862.22;;;13.70;100.00
75157;BME280;63736;50.076;8.198;2023-04-01T10:39:03;97861.06;;;13.80;100.00
75157;BME280;63736;50.076;8.198;2023-04-01T10:47:33;97851.94;;;13.74;100.00
75157;BME280;63736;50.076;8.198;2023-04-01T10:50:32;97856.75;;;13.79;100.00
75157;BME280;63736;50.076;8.198;2023-04-01T10:53:35;97849.56;;;13.86;100.00
75157;BME280;63736;50.076;8.198;2023-04-01T11:16:13;97851.09;;;14.67;100.00
75157;BME280;63736;50.076;8.198;2023-04-01T11:19:10;97857.38;;;14.52;100.00
75157;BME280;63736;50.076;8.198;2023-04-01T11:27:33;97861.56;;;14.33;100.00
75157;BME280;63736;50.076;8.198;2023-04-01T11:30:23;97866.44;;;14.23;100.00
75157;BME280;63736;50.076;8.198;2023-04-01T11:33:12;97869.34;;;14.21;100.00
75157;BME280;63736;50.076;8.198;2023-04-01T11:38:45;97868.03;;;14.17;100.00
75157;BME280;63736;50.076;8.198;2023-04-01T11:41:49;97874.75;;;14.07;100.00
75157;BME280;63736;50.076;8.198;2023-04-01T11:44:20;97865.88;;;14.06;100.00
75157;BME280;63736;50.076;8.198;2023-04-01T11:49:29;97877.50;;;14.13;100.00
75157;BME280;63736;50.076;8.198;2023-04-01T12:00:43;97893.91;;;14.25;100.00
75157;BME280;63736;50.076;8.198;2023-04-01T12:03:37;97903.19;;;14.23;100.00
75157;BME280;63736;50.076;8.198;2023-04-01T12:06:19;97907.50;;;14.17;100.00
75157;BME280;63736;50.076;8.198;2023-04-01T12:09:21;97908.91;;;14.13;100.00
75157;BME280;63736;50.076;8.198;2023-04-01T12:14:45;97907.28;;;14.18;100.00
75157;BME280;63736;50.076;8.198;2023-04-01T12:17:33;97915.81;;;14.22;100.00
75157;BME280;63736;50.076;8.198;2023-04-01T12:20:12;97910.94;;;14.32;100.00
75157;BME280;63736;50.076;8.198;2023-04-01T12:23:08;97917.28;;;14.46;100.00
75157;BME280;63736;50.076;8.198;2023-04-01T12:26:00;97906.41;;;14.61;100.00
75157;BME280;63736;50.076;8.198;2023-04-01T12:31:19;97912.66;;;14.62;100.00
75157;BME280;63736;50.076;8.198;2023-04-01T12:37:06;97914.50;;;14.40;100.00
75157;BME280;63736;50.076;8.198;2023-04-01T12:43:01;97918.09;;;14.47;100.00
75157;BME280;63736;50.076;8.198;2023-04-01T12:45:34;97919.00;;;14.54;100.00
75157;BME280;63736;50.076;8.198;2023-04-01T12:48:51;97919.66;;;14.63;100.00
75157;BME280;63736;50.076;8.198;2023-04-01T12:54:20;97920.22;;;14.80;100.00
75157;BME280;63736;50.076;8.198;2023-04-01T13:00:03;97918.47;;;14.94;100.00
75157;BME280;63736;50.076;8.198;2023-04-01T13:14:36;97927.97;;;15.25;100.00
75157;BME280;63736;50.076;8.198;2023-04-01T13:17:27;97933.88;;;15.07;100.00
75157;BME280;63736;50.076;8.198;2023-04-01T13:20:23;97939.53;;;14.90;100.00
75157;BME280;63736;50.076;8.198;2023-04-01T13:23:09;97939.19;;;14.72;100.00
75157;BME280;63736;50.076;8.198;2023-04-01T13:25:51;97944.75;;;14.48;100.00
75157;BME280;63736;50.076;8.198;2023-04-01T13:31:00;97950.31;;;14.03;100.00
75157;BME280;63736;50.076;8.198;2023-04-01T13:36:19;97954.91;;;13.73;100.00
75157;BME280;63736;50.076;8.198;2023-04-01T13:41:54;97940.06;;;13.26;100.00
75157;BME280;63736;50.076;8.198;2023-04-01T13:44:32;97943.81;;;13.01;100.00
75157;BME280;63736;50.076;8.198;2023-04-01T13:47:12;97945.31;;;12.89;100.00
75157;BME280;63736;50.076;8.198;2023-04-01T13:50:17;97946.59;;;12.93;100.00
75157;BME280;63736;50.076;8.198;2023-04-01T13:55:44;97958.72;;;13.19;100.00
75157;BME280;63736;50.076;8.198;2023-04-01T14:00:55;97966.22;;;13.23;100.00
75157;BME280;63736;50.076;8.198;2023-04-01T14:03:43;97973.72;;;13.28;100.00
75157;BME280;63736;50.076;8.198;2023-04-01T14:09:06;97974.56;;;13.44;100.00
75157;BME280;63736;50.076;8.198;2023-04-01T14:11:53;97959.38;;;13.51;100.00
75157;BME280;63736;50.076;8.198;2023-04-01T14:17:10;97980.56;;;13.61;100.00
75157;BME280;63736;50.076;8.198;2023-04-01T14:19:51;97980.19;;;13.64;100.00
75157;BME280;63736;50.076;8.198;2023-04-01T14:22:35;97981.13;;;13.71;100.00
75157;BME280;63736;50.076;8.198;2023-04-01T14:25:08;97977.84;;;13.76;100.00
75157;BME280;63736;50.076;8.198;2023-04-01T14:27:56;97974.44;;;13.82;100.00
75157;BME280;63736;50.076;8.198;2023-04-01T14:33:31;97992.88;;;13.55;100.00
75157;BME280;63736;50.076;8.198;2023-04-01T14:47:42;98004.56;;;13.09;100.00
75157;BME280;63736;50.076;8.198;2023-04-01T14:50:13;97996.19;;;13.12;100.00
75157;BME280;63736;50.076;8.198;2023-04-01T14:52:42;97999.00;;;13.11;100.00
75157;BME280;63736;50.076;8.198;2023-04-01T14:55:21;97999.00;;;13.11;100.00
75157;BME280;63736;50.076;8.198;2023-04-01T14:58:12;97999.00;;;13.11;100.00
75157;BME280;63736;50.076;8.198;2023-04-01T15:03:26;98013.63;;;13.08;100.00
75157;BME280;63736;50.076;8.198;2023-04-01T15:06:09;98014.66;;;13.07;100.00
75157;BME280;63736;50.076;8.198;2023-04-01T15:09:17;98018.88;;;13.01;100.00
75157;BME280;63736;50.076;8.198;2023-04-01T15:12:03;98017.38;;;12.99;100.00
75157;BME280;63736;50.076;8.198;2023-04-01T15:18:27;98023.22;;;13.02;100.00
75157;BME280;63736;50.076;8.198;2023-04-01T15:21:09;98022.69;;;13.22;100.00
75157;BME280;63736;50.076;8.198;2023-04-01T15:23:57;98029.22;;;13.43;100.00
75157;BME280;63736;50.076;8.198;2023-04-01T15:34:32;98033.34;;;13.30;100.00
75157;BME280;63736;50.076;8.198;2023-04-01T15:37:07;98038.50;;;13.02;100.00
75157;BME280;63736;50.076;8.198;2023-04-01T15:39:55;98039.34;;;12.79;100.00
75157;BME280;63736;50.076;8.198;2023-04-01T15:45:16;98050.28;;;12.46;100.00
75157;BME280;63736;50.076;8.198;2023-04-01T15:47:52;98053.19;;;12.36;100.00
75157;BME280;63736;50.076;8.198;2023-04-01T15:50:43;98059.97;;;12.24;100.00
75157;BME280;63736;50.076;8.198;2023-04-01T15:56:13;98065.25;;;12.01;100.00
75157;BME280;63736;50.076;8.198;2023-04-01T15:58:59;98065.59;;;11.89;100.00
75157;BME280;63736;50.076;8.198;2023-04-01T16:01:38;98061.13;;;11.82;100.00
75157;BME280;63736;50.076;8.198;2023-04-01T16:04:26;98066.34;;;11.75;100.00
75157;BME280;63736;50.076;8.198;2023-04-01T16:07:29;98068.84;;;11.77;100.00
75157;BME280;63736;50.076;8.198;2023-04-01T16:10:28;98064.47;;;11.76;100.00
75157;BME280;63736;50.076;8.198;2023-04-01T16:15:51;98074.53;;;11.73;100.00
75157;BME280;63736;50.076;8.198;2023-04-01T16:18:33;98083.56;;;11.72;100.00
75157;BME280;63736;50.076;8.198;2023-04-01T16:23:52;98081.75;;;11.65;100.00
75157;BME280;63736;50.076;8.198;2023-04-01T16:28:54;98085.78;;;11.61;100.00
75157;BME280;63736;50.076;8.198;2023-04-01T16:31:34;98082.91;;;11.62;100.00
75157;BME280;63736;50.076;8.198;2023-04-01T16:34:17;98081.09;;;11.63;100.00
75157;BME280;63736;50.076;8.198;2023-04-01T16:42:24;98103.03;;;11.50;100.00
75157;BME280;63736;50.076;8.198;2023-04-01T16:45:16;98105.22;;;11.38;100.00
75157;BME280;63736;50.076;8.198;2023-04-01T16:47:48;98111.06;;;11.33;100.00
75157;BME280;63736;50.076;8.198;2023-04-01T16:50:21;98109.03;;;11.27;100.00
75157;BME280;63736;50.076;8.198;2023-04-01T16:53:08;98116.22;;;11.18;100.00
75157;BME280;63736;50.076;8.198;2023-04-01T16:55:43;98123.44;;;11.10;100.00
75157;BME280;63736;50.076;8.198;2023-04-01T16:58:18;98125.09;;;11.02;100.00
75157;BME280;63736;50.076;8.198;2023-04-01T17:00:55;98136.44;;;10.96;100.00
75157;BME280;63736;50.076;8.198;2023-04-01T17:03:44;98141.44;;;10.91;100.00
75157;BME280;63736;50.076;8.198;2023-04-01T17:09:20;98149.97;;;10.86;100.00
75157;BME280;63736;50.076;8.198;2023-04-01T17:14:32;98155.31;;;10.86;100.00
75157;BME280;63736;50.076;8.198;2023-04-01T17:20:08;98152.97;;;10.83;100.00
75157;BME280;63736;50.076;8.198;2023-04-01T17:25:28;98163.44;;;10.77;100.00
75157;BME280;63736;50.076;8.198;2023-04-01T17:30:45;98161.59;;;10.69;100.00
75157;BME280;63736;50.076;8.198;2023-04-01T17:41:28;98186.94;;;10.56;100.00
75157;BME280;63736;50.076;8.198;2023-04-01T17:49:30;98200.41;;;10.47;100.00
75157;BME280;63736;50.076;8.198;2023-04-01T17:52:01;98200.06;;;10.41;100.00
75157;BME280;63736;50.076;8.198;2023-04-01T17:54:41;98199.84;;;10.35;100.00
75157;BME280;63736;50.076;8.198;2023-04-01T17:57:45;98200.97;;;10.24;100.00
75157;BME280;63736;50.076;8.198;2023-04-01T18:08:10;98213.59;;;9.87;100.00
75157;BME280;63736;50.076;8.198;2023-04-01T18:11:03;98229.59;;;9.87;100.00
75157;BME280;63736;50.076;8.198;2023-04-01T18:13:58;98230.28;;;9.89;100.00
75157;BME280;63736;50.076;8.198;2023-04-01T18:16:33;98226.31;;;9.94;100.00
75157;BME280;63736;50.076;8.198;2023-04-01T18:21:53;98232.31;;;9.96;100.00
75157;BME280;63736;50.076;8.198;2023-04-01T18:25:28;98238.63;;;9.95;100.00
75157;BME280;63736;50.076;8.198;2023-04-01T18:27:24;98235.47;;;9.91;100.00
75157;BME280;63736;50.076;8.198;2023-04-01T18:30:03;98243.41;;;9.83;100.00